BAW87B EBBR-EDDF
Flight info
| Callsign | BAW87B |
|---|---|
| Flight time | 0h 42m |
| Altitude | 23000 |
| Route | SPI4M SPI T180 NIVNU T847 IMCOM IMCOM1A |
| Aircraft | A319/M-SDE3FGIJ1KRWXY/LB1 |
Departure
| Time | 2026-05-06 15:40 |
|---|---|
| Airport | Brussels Airport (EBBR) |
Arrival
| Time | 2026-05-06 16:22 |
|---|---|
| Airport | Frankfurt Main Airport (EDDF) |
| Time | Latitude | Longitude | Altitude | Speed | Heading |
|---|---|---|---|---|---|
| 2026-05-06 15:04 | 50.89643 | 4.48967 | 147 ft | 0 kts | 335° |
| 2026-05-06 15:29 | 50.89632 | 4.48975 | 147 ft | 4 kts | 335° |
| 2026-05-06 15:30 | 50.89609 | 4.48991 | 147 ft | 2 kts | 335° |
| 2026-05-06 15:30 | 50.89586 | 4.49004 | 147 ft | 4 kts | 358° |
| 2026-05-06 15:30 | 50.89562 | 4.48995 | 148 ft | 4 kts | 54° |
| 2026-05-06 15:30 | 50.89557 | 4.48981 | 148 ft | 1 kts | 65° |
| 2026-05-06 15:31 | 50.89557 | 4.48980 | 148 ft | 0 kts | 65° |
| 2026-05-06 15:33 | 50.89562 | 4.48998 | 148 ft | 3 kts | 65° |
| 2026-05-06 15:34 | 50.89576 | 4.49045 | 147 ft | 6 kts | 65° |
| 2026-05-06 15:34 | 50.89615 | 4.49100 | 147 ft | 9 kts | 36° |
| 2026-05-06 15:34 | 50.89604 | 4.49177 | 147 ft | 8 kts | 129° |
| 2026-05-06 15:34 | 50.89618 | 4.49250 | 147 ft | 10 kts | 22° |
| 2026-05-06 15:35 | 50.89695 | 4.49283 | 147 ft | 13 kts | 14° |
| 2026-05-06 15:35 | 50.89791 | 4.49321 | 146 ft | 15 kts | 13° |
| 2026-05-06 15:35 | 50.89896 | 4.49365 | 146 ft | 16 kts | 15° |
| 2026-05-06 15:35 | 50.90005 | 4.49409 | 145 ft | 17 kts | 15° |
| 2026-05-06 15:36 | 50.90105 | 4.49449 | 144 ft | 16 kts | 14° |
| 2026-05-06 15:36 | 50.90239 | 4.49503 | 144 ft | 24 kts | 14° |
| 2026-05-06 15:36 | 50.90392 | 4.49568 | 143 ft | 23 kts | 14° |
| 2026-05-06 15:36 | 50.90567 | 4.49638 | 142 ft | 29 kts | 14° |
| 2026-05-06 15:37 | 50.90732 | 4.49707 | 141 ft | 22 kts | 15° |
| 2026-05-06 15:37 | 50.90860 | 4.49754 | 140 ft | 19 kts | 12° |
| 2026-05-06 15:37 | 50.90964 | 4.49838 | 139 ft | 14 kts | 38° |
| 2026-05-06 15:37 | 50.91022 | 4.49901 | 138 ft | 5 kts | 22° |
| 2026-05-06 15:38 | 50.91041 | 4.49914 | 137 ft | 4 kts | 22° |
| 2026-05-06 15:38 | 50.91083 | 4.49941 | 136 ft | 9 kts | 23° |
| 2026-05-06 15:38 | 50.91141 | 4.49901 | 135 ft | 12 kts | 297° |
| 2026-05-06 15:38 | 50.91131 | 4.49860 | 136 ft | 0 kts | 253° |
| 2026-05-06 15:39 | 50.91122 | 4.49823 | 136 ft | 11 kts | 245° |
| 2026-05-06 15:39 | 50.90998 | 4.49389 | 139 ft | 78 kts | 246° |
| 2026-05-06 15:39 | 50.90686 | 4.48314 | 139 ft | 135 kts | 245° |
| 2026-05-06 15:39 | 50.90255 | 4.46772 | 414 ft | 155 kts | 250° |
| 2026-05-06 15:40 | 50.89818 | 4.45215 | 1045 ft | 156 kts | 250° |
| 2026-05-06 15:40 | 50.89367 | 4.43618 | 1613 ft | 166 kts | 249° |
| 2026-05-06 15:40 | 50.88793 | 4.41883 | 1980 ft | 190 kts | 238° |
| 2026-05-06 15:40 | 50.88204 | 4.40790 | 2197 ft | 207 kts | 226° |
| 2026-05-06 15:41 | 50.86941 | 4.39427 | 2550 ft | 235 kts | 206° |
| 2026-05-06 15:41 | 50.85271 | 4.38755 | 3018 ft | 261 kts | 183° |
| 2026-05-06 15:41 | 50.83433 | 4.39163 | 3825 ft | 272 kts | 159° |
| 2026-05-06 15:41 | 50.81812 | 4.40675 | 4815 ft | 275 kts | 135° |
| 2026-05-06 15:42 | 50.80766 | 4.42834 | 5694 ft | 276 kts | 114° |
| 2026-05-06 15:42 | 50.80266 | 4.45824 | 6652 ft | 277 kts | 89° |
| 2026-05-06 15:42 | 50.80432 | 4.48772 | 7544 ft | 279 kts | 81° |
| 2026-05-06 15:42 | 50.80304 | 4.51862 | 8412 ft | 288 kts | 101° |
| 2026-05-06 15:43 | 50.79692 | 4.54909 | 9338 ft | 292 kts | 110° |
| 2026-05-06 15:43 | 50.78913 | 4.57898 | 10128 ft | 301 kts | 112° |
| 2026-05-06 15:43 | 50.78062 | 4.61071 | 10438 ft | 325 kts | 111° |
| 2026-05-06 15:43 | 50.77190 | 4.64482 | 10838 ft | 342 kts | 110° |
| 2026-05-06 15:44 | 50.76343 | 4.68024 | 11513 ft | 348 kts | 109° |
| 2026-05-06 15:44 | 50.75536 | 4.71612 | 12238 ft | 352 kts | 108° |
| 2026-05-06 15:44 | 50.74743 | 4.75294 | 13017 ft | 356 kts | 107° |
| 2026-05-06 15:44 | 50.73955 | 4.79024 | 13763 ft | 360 kts | 107° |
| 2026-05-06 15:45 | 50.73162 | 4.82785 | 14414 ft | 364 kts | 107° |
| 2026-05-06 15:45 | 50.72356 | 4.86596 | 15062 ft | 368 kts | 108° |
| 2026-05-06 15:45 | 50.71538 | 4.90445 | 15713 ft | 372 kts | 108° |
| 2026-05-06 15:45 | 50.70707 | 4.94320 | 16367 ft | 376 kts | 108° |
| 2026-05-06 15:46 | 50.69859 | 4.98246 | 17025 ft | 379 kts | 109° |
| 2026-05-06 15:46 | 50.69001 | 5.02192 | 17672 ft | 383 kts | 109° |
| 2026-05-06 15:46 | 50.68131 | 5.06185 | 18307 ft | 387 kts | 109° |
| 2026-05-06 15:46 | 50.67250 | 5.10211 | 18888 ft | 390 kts | 109° |
| 2026-05-06 15:47 | 50.66362 | 5.14265 | 19482 ft | 392 kts | 109° |
| 2026-05-06 15:47 | 50.65480 | 5.18289 | 20084 ft | 394 kts | 109° |
| 2026-05-06 15:47 | 50.64571 | 5.22437 | 20715 ft | 396 kts | 109° |
| 2026-05-06 15:47 | 50.63681 | 5.26499 | 21325 ft | 398 kts | 109° |
| 2026-05-06 15:48 | 50.62776 | 5.30640 | 21903 ft | 401 kts | 109° |
| 2026-05-06 15:48 | 50.61865 | 5.34798 | 22470 ft | 403 kts | 109° |
| 2026-05-06 15:48 | 50.60946 | 5.38976 | 22828 ft | 405 kts | 109° |
| 2026-05-06 15:48 | 50.60027 | 5.43140 | 22904 ft | 400 kts | 110° |
| 2026-05-06 15:49 | 50.59089 | 5.47293 | 22896 ft | 403 kts | 110° |
| 2026-05-06 15:49 | 50.58152 | 5.51431 | 22892 ft | 399 kts | 110° |
| 2026-05-06 15:49 | 50.57229 | 5.55514 | 22891 ft | 394 kts | 110° |
| 2026-05-06 15:49 | 50.56330 | 5.59584 | 22899 ft | 393 kts | 108° |
| 2026-05-06 15:50 | 50.55503 | 5.63675 | 22892 ft | 393 kts | 108° |
| 2026-05-06 15:50 | 50.54684 | 5.67779 | 22893 ft | 393 kts | 108° |
| 2026-05-06 15:50 | 50.53867 | 5.71889 | 22899 ft | 393 kts | 108° |
| 2026-05-06 15:50 | 50.53054 | 5.75988 | 22885 ft | 394 kts | 108° |
| 2026-05-06 15:51 | 50.52245 | 5.80097 | 22892 ft | 394 kts | 108° |
| 2026-05-06 15:51 | 50.51441 | 5.84209 | 22883 ft | 395 kts | 108° |
| 2026-05-06 15:51 | 50.50636 | 5.88345 | 22877 ft | 395 kts | 108° |
| 2026-05-06 15:51 | 50.49839 | 5.92473 | 22875 ft | 396 kts | 108° |
| 2026-05-06 15:52 | 50.49041 | 5.96620 | 22881 ft | 396 kts | 108° |
| 2026-05-06 15:52 | 50.48246 | 6.00765 | 22866 ft | 396 kts | 108° |
| 2026-05-06 15:52 | 50.47452 | 6.04915 | 22863 ft | 397 kts | 108° |
| 2026-05-06 15:52 | 50.46660 | 6.09065 | 22859 ft | 397 kts | 108° |
| 2026-05-06 15:53 | 50.45870 | 6.13213 | 22858 ft | 398 kts | 108° |
| 2026-05-06 15:53 | 50.45079 | 6.17376 | 22855 ft | 398 kts | 108° |
| 2026-05-06 15:53 | 50.44291 | 6.21540 | 22846 ft | 398 kts | 108° |
| 2026-05-06 15:53 | 50.43500 | 6.25716 | 22848 ft | 399 kts | 108° |
| 2026-05-06 15:54 | 50.42709 | 6.29891 | 22845 ft | 399 kts | 108° |
| 2026-05-06 15:54 | 50.41921 | 6.34054 | 22841 ft | 399 kts | 108° |
| 2026-05-06 15:54 | 50.41132 | 6.38221 | 22834 ft | 400 kts | 108° |
| 2026-05-06 15:54 | 50.40349 | 6.42361 | 22833 ft | 400 kts | 108° |
| 2026-05-06 15:55 | 50.39559 | 6.46552 | 22827 ft | 401 kts | 108° |
| 2026-05-06 15:55 | 50.38763 | 6.50790 | 22831 ft | 401 kts | 108° |
| 2026-05-06 15:55 | 50.37982 | 6.54942 | 22832 ft | 402 kts | 108° |
| 2026-05-06 15:55 | 50.37193 | 6.59140 | 22718 ft | 400 kts | 108° |
| 2026-05-06 15:56 | 50.36410 | 6.63312 | 22212 ft | 398 kts | 108° |
| 2026-05-06 15:56 | 50.35633 | 6.67452 | 21705 ft | 395 kts | 108° |
| 2026-05-06 15:56 | 50.34863 | 6.71574 | 21199 ft | 393 kts | 108° |
| 2026-05-06 15:56 | 50.34096 | 6.75669 | 20696 ft | 390 kts | 108° |
| 2026-05-06 15:57 | 50.33336 | 6.79732 | 20194 ft | 387 kts | 108° |
| 2026-05-06 15:57 | 50.32584 | 6.83756 | 19826 ft | 385 kts | 108° |
| 2026-05-06 15:57 | 50.31829 | 6.87788 | 19550 ft | 385 kts | 108° |
| 2026-05-06 15:57 | 50.31076 | 6.91800 | 19279 ft | 384 kts | 108° |
| 2026-05-06 15:58 | 50.30327 | 6.95795 | 19007 ft | 382 kts | 108° |
| 2026-05-06 15:58 | 50.29579 | 6.99783 | 18742 ft | 381 kts | 108° |
| 2026-05-06 15:58 | 50.28836 | 7.03738 | 18476 ft | 379 kts | 108° |
| 2026-05-06 15:58 | 50.28093 | 7.07699 | 18214 ft | 377 kts | 108° |
| 2026-05-06 15:59 | 50.27355 | 7.11624 | 17933 ft | 376 kts | 108° |
| 2026-05-06 15:59 | 50.26628 | 7.15488 | 17639 ft | 374 kts | 108° |
| 2026-05-06 15:59 | 50.25817 | 7.19393 | 17330 ft | 371 kts | 115° |
| 2026-05-06 15:59 | 50.24652 | 7.22901 | 17065 ft | 368 kts | 121° |
| 2026-05-06 16:00 | 50.23434 | 7.26410 | 16802 ft | 366 kts | 120° |
| 2026-05-06 16:00 | 50.22227 | 7.29902 | 16540 ft | 365 kts | 120° |
| 2026-05-06 16:00 | 50.21025 | 7.33384 | 16279 ft | 363 kts | 120° |
| 2026-05-06 16:00 | 50.19832 | 7.36833 | 16018 ft | 362 kts | 120° |
| 2026-05-06 16:01 | 50.18626 | 7.40298 | 15761 ft | 361 kts | 120° |
| 2026-05-06 16:01 | 50.17430 | 7.43727 | 15520 ft | 359 kts | 120° |
| 2026-05-06 16:01 | 50.16234 | 7.47140 | 15273 ft | 358 kts | 120° |
| 2026-05-06 16:01 | 50.15039 | 7.50538 | 15018 ft | 357 kts | 120° |
| 2026-05-06 16:02 | 50.13844 | 7.53916 | 14770 ft | 356 kts | 120° |
| 2026-05-06 16:02 | 50.12758 | 7.57386 | 14522 ft | 356 kts | 109° |
| 2026-05-06 16:02 | 50.12168 | 7.61134 | 14276 ft | 356 kts | 103° |
| 2026-05-06 16:02 | 50.11627 | 7.64905 | 14025 ft | 355 kts | 104° |
| 2026-05-06 16:03 | 50.10849 | 7.68541 | 13782 ft | 353 kts | 116° |
| 2026-05-06 16:03 | 50.09618 | 7.71831 | 13538 ft | 350 kts | 127° |
| 2026-05-06 16:03 | 50.08227 | 7.74936 | 13269 ft | 349 kts | 126° |
| 2026-05-06 16:03 | 50.06841 | 7.78037 | 12997 ft | 348 kts | 126° |
| 2026-05-06 16:04 | 50.05466 | 7.81120 | 12730 ft | 346 kts | 126° |
| 2026-05-06 16:04 | 50.04098 | 7.84192 | 12465 ft | 344 kts | 126° |
| 2026-05-06 16:04 | 50.02756 | 7.87208 | 12207 ft | 343 kts | 126° |
| 2026-05-06 16:04 | 50.01453 | 7.90308 | 11945 ft | 343 kts | 119° |
| 2026-05-06 16:05 | 50.00630 | 7.93778 | 11684 ft | 343 kts | 103° |
| 2026-05-06 16:05 | 50.00418 | 7.97451 | 11308 ft | 342 kts | 88° |
| 2026-05-06 16:05 | 50.00832 | 8.01071 | 10834 ft | 340 kts | 72° |
| 2026-05-06 16:05 | 50.01659 | 8.04498 | 10356 ft | 338 kts | 69° |
| 2026-05-06 16:06 | 50.02484 | 8.07911 | 9980 ft | 336 kts | 69° |
| 2026-05-06 16:06 | 50.03317 | 8.11316 | 9738 ft | 334 kts | 69° |
| 2026-05-06 16:06 | 50.04129 | 8.14622 | 9600 ft | 321 kts | 69° |
| 2026-05-06 16:06 | 50.04909 | 8.17804 | 9472 ft | 309 kts | 69° |
| 2026-05-06 16:07 | 50.05665 | 8.20896 | 9335 ft | 303 kts | 70° |
| 2026-05-06 16:07 | 50.06407 | 8.23942 | 9205 ft | 301 kts | 70° |
| 2026-05-06 16:07 | 50.07145 | 8.26991 | 9068 ft | 300 kts | 70° |
| 2026-05-06 16:07 | 50.07875 | 8.30022 | 8936 ft | 300 kts | 70° |
| 2026-05-06 16:08 | 50.08609 | 8.33071 | 8794 ft | 299 kts | 70° |
| 2026-05-06 16:08 | 50.09334 | 8.36087 | 8800 ft | 298 kts | 70° |
| 2026-05-06 16:08 | 50.10062 | 8.39119 | 8803 ft | 299 kts | 70° |
| 2026-05-06 16:08 | 50.10789 | 8.42147 | 8804 ft | 298 kts | 70° |
| 2026-05-06 16:09 | 50.11515 | 8.45173 | 8800 ft | 298 kts | 70° |
| 2026-05-06 16:09 | 50.12242 | 8.48198 | 8807 ft | 298 kts | 70° |
| 2026-05-06 16:09 | 50.12955 | 8.51169 | 8806 ft | 299 kts | 70° |
| 2026-05-06 16:09 | 50.13694 | 8.54261 | 8812 ft | 299 kts | 70° |
| 2026-05-06 16:10 | 50.14417 | 8.57296 | 8808 ft | 298 kts | 70° |
| 2026-05-06 16:10 | 50.15137 | 8.60331 | 8755 ft | 299 kts | 70° |
| 2026-05-06 16:10 | 50.15846 | 8.63324 | 8622 ft | 298 kts | 70° |
| 2026-05-06 16:10 | 50.16566 | 8.66356 | 8490 ft | 297 kts | 70° |
| 2026-05-06 16:11 | 50.17283 | 8.69370 | 8196 ft | 295 kts | 70° |
| 2026-05-06 16:11 | 50.17989 | 8.72351 | 7875 ft | 294 kts | 70° |
| 2026-05-06 16:11 | 50.18687 | 8.75307 | 7541 ft | 292 kts | 70° |
| 2026-05-06 16:11 | 50.19396 | 8.78299 | 7190 ft | 291 kts | 70° |
| 2026-05-06 16:12 | 50.20094 | 8.81258 | 6843 ft | 289 kts | 70° |
| 2026-05-06 16:12 | 50.20786 | 8.84196 | 6512 ft | 288 kts | 71° |
| 2026-05-06 16:12 | 50.21474 | 8.87123 | 6175 ft | 287 kts | 71° |
| 2026-05-06 16:12 | 50.22157 | 8.90037 | 5836 ft | 285 kts | 71° |
| 2026-05-06 16:13 | 50.22836 | 8.92937 | 5496 ft | 283 kts | 71° |
| 2026-05-06 16:13 | 50.23514 | 8.95828 | 5151 ft | 283 kts | 71° |
| 2026-05-06 16:13 | 50.24180 | 8.98706 | 4810 ft | 281 kts | 73° |
| 2026-05-06 16:13 | 50.24374 | 9.01693 | 4459 ft | 275 kts | 101° |
| 2026-05-06 16:14 | 50.23673 | 9.04410 | 4116 ft | 269 kts | 130° |
| 2026-05-06 16:14 | 50.22257 | 9.06183 | 3960 ft | 261 kts | 160° |
| 2026-05-06 16:14 | 50.20495 | 9.06604 | 3974 ft | 256 kts | 190° |
| 2026-05-06 16:14 | 50.18870 | 9.05614 | 3977 ft | 252 kts | 219° |
| 2026-05-06 16:15 | 50.17695 | 9.03651 | 3981 ft | 252 kts | 233° |
| 2026-05-06 16:15 | 50.16627 | 9.01473 | 3983 ft | 253 kts | 234° |
| 2026-05-06 16:15 | 50.15576 | 8.99276 | 3986 ft | 252 kts | 234° |
| 2026-05-06 16:15 | 50.14532 | 8.97075 | 3984 ft | 249 kts | 234° |
| 2026-05-06 16:16 | 50.13537 | 8.94968 | 3988 ft | 235 kts | 234° |
| 2026-05-06 16:16 | 50.12595 | 8.92972 | 3989 ft | 224 kts | 234° |
| 2026-05-06 16:16 | 50.11744 | 8.90969 | 3994 ft | 221 kts | 243° |
| 2026-05-06 16:16 | 50.11136 | 8.88797 | 3993 ft | 211 kts | 248° |
| 2026-05-06 16:17 | 50.10648 | 8.86745 | 3987 ft | 194 kts | 249° |
| 2026-05-06 16:17 | 50.10198 | 8.84828 | 3897 ft | 182 kts | 250° |
| 2026-05-06 16:17 | 50.09766 | 8.82989 | 3645 ft | 178 kts | 250° |
| 2026-05-06 16:17 | 50.09343 | 8.81192 | 3437 ft | 178 kts | 250° |
| 2026-05-06 16:18 | 50.08913 | 8.79368 | 3197 ft | 177 kts | 250° |
| 2026-05-06 16:18 | 50.08489 | 8.77575 | 2962 ft | 177 kts | 250° |
| 2026-05-06 16:18 | 50.08064 | 8.75776 | 2733 ft | 177 kts | 250° |
| 2026-05-06 16:18 | 50.07641 | 8.73982 | 2488 ft | 177 kts | 251° |
| 2026-05-06 16:19 | 50.07223 | 8.72218 | 2265 ft | 173 kts | 252° |
| 2026-05-06 16:19 | 50.06804 | 8.70446 | 2028 ft | 173 kts | 251° |
| 2026-05-06 16:19 | 50.06394 | 8.68718 | 1792 ft | 174 kts | 252° |
| 2026-05-06 16:19 | 50.05975 | 8.66955 | 1547 ft | 169 kts | 251° |
| 2026-05-06 16:20 | 50.05593 | 8.65345 | 1337 ft | 150 kts | 252° |
| 2026-05-06 16:20 | 50.05256 | 8.63931 | 1122 ft | 133 kts | 252° |
| 2026-05-06 16:20 | 50.04934 | 8.62574 | 949 ft | 130 kts | 252° |
| 2026-05-06 16:20 | 50.04627 | 8.61282 | 774 ft | 125 kts | 252° |
| 2026-05-06 16:21 | 50.04328 | 8.60007 | 578 ft | 125 kts | 253° |
| 2026-05-06 16:21 | 50.04031 | 8.58754 | 406 ft | 122 kts | 252° |
| 2026-05-06 16:21 | 50.03746 | 8.57557 | 347 ft | 102 kts | 249° |
| 2026-05-06 16:21 | 50.03553 | 8.56734 | 346 ft | 64 kts | 250° |
| 2026-05-06 16:22 | 50.03405 | 8.56133 | 352 ft | 59 kts | 249° |
| 2026-05-06 16:22 | 50.03309 | 8.55536 | 346 ft | 53 kts | 274° |
| 2026-05-06 16:22 | 50.03384 | 8.55086 | 346 ft | 29 kts | 317° |
| 2026-05-06 16:22 | 50.03465 | 8.55082 | 353 ft | 4 kts | 51° |
| 2026-05-06 16:23 | 50.03469 | 8.55139 | 346 ft | 7 kts | 86° |
| 2026-05-06 16:23 | 50.03471 | 8.55210 | 346 ft | 6 kts | 87° |
| 2026-05-06 16:23 | 50.03474 | 8.55275 | 346 ft | 6 kts | 87° |
| 2026-05-06 16:23 | 50.03476 | 8.55344 | 346 ft | 9 kts | 87° |
| 2026-05-06 16:24 | 50.03496 | 8.55478 | 353 ft | 17 kts | 73° |
| 2026-05-06 16:24 | 50.03545 | 8.55686 | 346 ft | 23 kts | 70° |
| 2026-05-06 16:24 | 50.03599 | 8.55918 | 348 ft | 23 kts | 70° |
| 2026-05-06 16:24 | 50.03653 | 8.56149 | 348 ft | 22 kts | 69° |
| 2026-05-06 16:25 | 50.03708 | 8.56371 | 352 ft | 22 kts | 69° |
| 2026-05-06 16:25 | 50.03758 | 8.56584 | 354 ft | 21 kts | 70° |
| 2026-05-06 16:25 | 50.03808 | 8.56792 | 352 ft | 20 kts | 70° |
| 2026-05-06 16:25 | 50.03856 | 8.56990 | 348 ft | 19 kts | 69° |
| 2026-05-06 16:26 | 50.03900 | 8.57180 | 349 ft | 18 kts | 70° |
| 2026-05-06 16:26 | 50.03945 | 8.57359 | 348 ft | 17 kts | 69° |
| 2026-05-06 16:26 | 50.03985 | 8.57532 | 354 ft | 17 kts | 70° |
| 2026-05-06 16:26 | 50.04024 | 8.57694 | 346 ft | 15 kts | 70° |
| 2026-05-06 16:27 | 50.04059 | 8.57842 | 349 ft | 12 kts | 70° |
| 2026-05-06 16:27 | 50.04078 | 8.57916 | 348 ft | 10 kts | 69° |
| 2026-05-06 16:27 | 50.04099 | 8.58003 | 353 ft | 5 kts | 69° |
| 2026-05-06 16:27 | 50.04105 | 8.58028 | 349 ft | 0 kts | 69° |
| 2026-05-06 16:28 | 50.04106 | 8.58028 | 349 ft | 0 kts | 69° |
| 2026-05-06 16:28 | 50.04114 | 8.58063 | 350 ft | 7 kts | 69° |
| 2026-05-06 16:29 | 50.04142 | 8.58174 | 353 ft | 15 kts | 69° |
| 2026-05-06 16:29 | 50.04188 | 8.58372 | 353 ft | 24 kts | 70° |
| 2026-05-06 16:29 | 50.04249 | 8.58632 | 351 ft | 26 kts | 69° |
| 2026-05-06 16:29 | 50.04313 | 8.58894 | 352 ft | 26 kts | 69° |
| 2026-05-06 16:30 | 50.04375 | 8.59153 | 352 ft | 25 kts | 70° |
| 2026-05-06 16:30 | 50.04416 | 8.59320 | 349 ft | 23 kts | 69° |
| 2026-05-06 16:30 | 50.04514 | 8.59481 | 353 ft | 12 kts | 353° |
| 2026-05-06 16:30 | 50.04560 | 8.59470 | 346 ft | 0 kts | 353° |
| 2026-05-06 16:31 | 50.04564 | 8.59470 | 349 ft | 2 kts | 354° |
| 2026-05-06 16:31 | 50.04588 | 8.59466 | 346 ft | 5 kts | 354° |
| 2026-05-06 16:31 | 50.04634 | 8.59459 | 352 ft | 9 kts | 354° |
| 2026-05-06 16:32 | 50.04705 | 8.59438 | 349 ft | 12 kts | 345° |
| 2026-05-06 16:32 | 50.04796 | 8.59383 | 347 ft | 15 kts | 340° |
| 2026-05-06 16:32 | 50.04844 | 8.59298 | 346 ft | 9 kts | 269° |
| 2026-05-06 16:32 | 50.04830 | 8.59226 | 355 ft | 3 kts | 254° |
| 2026-05-06 16:33 | 50.04825 | 8.59195 | 351 ft | 2 kts | 254° |
| 2026-05-06 16:33 | 50.04821 | 8.59177 | 349 ft | 2 kts | 254° |
| 2026-05-06 16:33 | 50.04821 | 8.59164 | 347 ft | 0 kts | 276° |
| 2026-05-06 16:34 | 50.04875 | 8.59125 | 346 ft | 6 kts | 337° |
| 2026-05-06 16:34 | 50.04897 | 8.59111 | 354 ft | 2 kts | 338° |
| 2026-05-06 16:34 | 50.04901 | 8.59109 | 354 ft | 0 kts | 338° |